Time;durP1;ratioP1;P1;durP2;ratioP2;P2;SDS_P1;SDS_P2;PMS_P1;PMS_P2;Temp;Humidity;BMP_temperature;BMP_pressure;BME280_temperature;BME280_humidity;BME280_pressure;Samples;Min_cycle;Max_cycle;Signal;HPM_P1;HPM_P2
2022/10/25 00:00:44;;;;;;;;;;;;;;;21.69;67.15;97332.34;588183;241;64852;-68
2022/10/25 00:03:12;;;;;;;;;;;;;;;21.67;66.54;97323.78;588210;241;64842;-68
2022/10/25 00:05:40;;;;;;;;;;;;;;;21.67;67.07;97321.10;588228;241;62793;-68
2022/10/25 00:08:08;;;;;;;;;;;;;;;21.68;67.15;97316.55;588257;241;66790;-68
2022/10/25 00:10:36;;;;;;;;;;;;;;;21.65;66.48;97325.91;588190;241;67060;-68
2022/10/25 00:13:04;;;;;;;;;;;;;;;21.66;67.00;97321.36;588190;241;64863;-69
2022/10/25 00:15:32;;;;;;;;;;;;;;;21.66;67.65;97316.01;588224;241;67270;-68
2022/10/25 00:17:59;;;;;;;;;;;;;;;21.65;67.46;97317.89;588235;241;65071;-68
2022/10/25 00:20:27;;;;;;;;;;;;;;;21.65;67.35;97322.44;588263;241;62766;-68
2022/10/25 00:22:54;;;;;;;;;;;;;;;21.66;67.34;97316.01;588195;241;65723;-68
2022/10/25 00:25:22;;;;;;;;;;;;;;;21.65;67.81;97317.89;588229;241;64716;-68
2022/10/25 00:27:49;;;;;;;;;;;;;;;21.65;66.71;97309.86;588213;241;62769;-68
2022/10/25 00:30:17;;;;;;;;;;;;;;;21.65;67.38;97315.21;588231;241;67325;-67
2022/10/25 00:32:44;;;;;;;;;;;;;;;21.65;66.91;97317.09;588256;241;66955;-68
2022/10/25 00:35:12;;;;;;;;;;;;;;;21.65;67.98;97319.77;588205;241;62466;-68
2022/10/25 00:37:39;;;;;;;;;;;;;;;21.64;67.31;97308.27;588191;241;67992;-68
2022/10/25 00:40:07;;;;;;;;;;;;;;;21.64;68.36;97307.47;588215;241;67835;-68
2022/10/25 00:42:35;;;;;;;;;;;;;;;21.64;68.28;97302.13;588215;241;64958;-67
2022/10/25 00:45:03;;;;;;;;;;;;;;;21.63;67.05;97305.84;588260;241;67111;-68
2022/10/25 00:47:41;;;;;;;;;;;;;;;21.63;67.14;97300.50;588248;241;67078;-68
2022/10/25 00:50:13;;;;;;;;;;;;;;;21.62;68.39;97298.91;588203;241;65004;-68
2022/10/25 00:52:42;;;;;;;;;;;;;;;21.62;68.00;97294.36;588263;239;67075;-68
2022/10/25 00:55:11;;;;;;;;;;;;;;;21.62;68.76;97296.23;588280;241;66669;-68
2022/10/25 00:57:42;;;;;;;;;;;;;;;21.61;68.03;97300.78;588252;241;63094;-67
2022/10/25 01:00:10;;;;;;;;;;;;;;;21.61;68.65;97291.97;588318;241;66770;-68
2022/10/25 01:02:38;;;;;;;;;;;;;;;21.61;68.02;97302.66;588172;240;66925;-68
2022/10/25 01:05:05;;;;;;;;;;;;;;;21.60;67.60;97298.36;588250;241;65130;-68
2022/10/25 01:07:33;;;;;;;;;;;;;;;21.60;67.65;97293.02;588225;241;66957;-68
2022/10/25 01:10:00;;;;;;;;;;;;;;;21.61;67.93;97294.64;588276;241;66703;-68
2022/10/25 01:12:28;;;;;;;;;;;;;;;21.59;68.29;97294.09;588261;241;65235;-68
2022/10/25 01:14:55;;;;;;;;;;;;;;;21.58;68.23;97293.30;588253;241;66862;-68
2022/10/25 01:17:41;;;;;;;;;;;;;;;21.59;67.52;97294.09;588230;241;66981;-68
2022/10/25 01:20:28;;;;;;;;;;;;;;;21.58;68.59;97293.30;588267;241;62937;-69
2022/10/25 01:22:57;;;;;;;;;;;;;;;21.58;68.26;97287.13;588212;241;64262;-69
2022/10/25 01:25:32;;;;;;;;;;;;;;;21.57;68.25;97282.86;588223;238;64883;-69
2022/10/25 01:28:01;;;;;;;;;;;;;;;21.57;68.95;97288.20;588416;238;65380;-68
2022/10/25 01:30:30;;;;;;;;;;;;;;;21.57;68.83;97282.86;588242;239;67294;-68
2022/10/25 01:33:14;;;;;;;;;;;;;;;21.57;68.52;97280.19;588346;238;64884;-68
2022/10/25 01:35:55;;;;;;;;;;;;;;;21.56;68.50;97274.04;588320;238;62819;-68
2022/10/25 01:38:42;;;;;;;;;;;;;;;21.56;68.19;97275.91;588233;241;67082;-69
2022/10/25 01:41:17;;;;;;;;;;;;;;;21.55;68.43;97269.74;588334;238;67852;-68
2022/10/25 01:43:46;;;;;;;;;;;;;;;21.54;68.88;97270.02;588313;238;65336;-69
2022/10/25 01:46:21;;;;;;;;;;;;;;;21.55;69.52;97272.41;588226;241;67060;-70
2022/10/25 01:48:50;;;;;;;;;;;;;;;21.54;69.04;97270.82;588318;238;64801;-70
2022/10/25 01:51:18;;;;;;;;;;;;;;;21.53;68.88;97263.88;588272;238;62604;-69
2022/10/25 01:53:46;;;;;;;;;;;;;;;21.53;68.56;97263.09;588207;241;65807;-67
2022/10/25 01:56:27;;;;;;;;;;;;;;;21.54;68.88;97259.33;588208;241;67833;-67
2022/10/25 01:58:57;;;;;;;;;;;;;;;21.53;68.71;97258.53;588176;239;64949;-67
2022/10/25 02:01:42;;;;;;;;;;;;;;;21.53;69.31;97258.53;588830;239;64729;-67
2022/10/25 02:04:14;;;;;;;;;;;;;;;21.53;68.55;97257.73;588282;241;67096;-66
2022/10/25 02:06:59;;;;;;;;;;;;;;;21.53;68.85;97252.39;588281;239;64954;-68
2022/10/25 02:09:29;;;;;;;;;;;;;;;21.53;69.08;97255.06;588260;241;67279;-68
2022/10/25 02:11:58;;;;;;;;;;;;;;;21.52;68.81;97256.11;588304;238;64258;-67
2022/10/25 02:14:30;;;;;;;;;;;;;;;21.51;69.02;97257.98;588254;241;62740;-68
2022/10/25 02:16:59;;;;;;;;;;;;;;;21.50;69.02;97251.84;588200;239;66803;-69
2022/10/25 02:19:28;;;;;;;;;;;;;;;21.51;69.10;97247.30;588247;241;66912;-69
2022/10/25 02:21:57;;;;;;;;;;;;;;;21.49;68.53;97250.22;588341;238;62753;-67
2022/10/25 02:24:25;;;;;;;;;;;;;;;21.49;69.07;97250.22;588262;241;66769;-67
2022/10/25 02:26:54;;;;;;;;;;;;;;;21.50;69.11;97246.50;588244;241;66875;-68
2022/10/25 02:29:22;;;;;;;;;;;;;;;21.51;68.68;97244.63;588252;241;63657;-67
2022/10/25 02:31:50;;;;;;;;;;;;;;;21.50;68.91;97249.17;588221;241;64722;-67
2022/10/25 02:34:18;;;;;;;;;;;;;;;21.49;68.65;97238.73;588301;241;64632;-67
2022/10/25 02:36:49;;;;;;;;;;;;;;;21.50;69.33;97241.15;588256;241;64966;-67
2022/10/25 02:39:17;;;;;;;;;;;;;;;21.49;68.79;97242.20;588256;241;66572;-67
2022/10/25 02:41:45;;;;;;;;;;;;;;;21.50;69.28;97243.03;588242;241;64283;-67
2022/10/25 02:44:12;;;;;;;;;;;;;;;21.50;68.03;97248.38;588234;241;62767;-67
2022/10/25 02:46:40;;;;;;;;;;;;;;;21.49;68.75;97239.53;588255;241;64880;-67
2022/10/25 02:49:07;;;;;;;;;;;;;;;21.49;69.40;97230.71;588246;241;64661;-67
2022/10/25 02:51:35;;;;;;;;;;;;;;;21.49;69.47;97225.36;588228;241;62733;-67
2022/10/25 02:54:02;;;;;;;;;;;;;;;21.48;68.98;97227.23;588269;241;64547;-67
2022/10/25 02:56:30;;;;;;;;;;;;;;;21.48;68.72;97229.12;588244;241;65423;-67
2022/10/25 02:58:58;;;;;;;;;;;;;;;21.49;68.95;97236.06;588287;241;62823;-67
2022/10/25 03:01:25;;;;;;;;;;;;;;;21.48;68.90;97240.61;588212;241;66913;-67
2022/10/25 03:03:53;;;;;;;;;;;;;;;21.48;68.28;97229.12;588229;241;66630;-67
2022/10/25 03:06:20;;;;;;;;;;;;;;;21.48;68.52;97231.80;588241;241;64879;-67
2022/10/25 03:08:47;;;;;;;;;;;;;;;21.48;68.75;97235.27;588234;241;66741;-67
2022/10/25 03:11:16;;;;;;;;;;;;;;;21.47;68.06;97230.99;588236;241;66724;-67
2022/10/25 03:13:43;;;;;;;;;;;;;;;21.47;68.73;97222.97;588229;241;65223;-67
2022/10/25 03:16:11;;;;;;;;;;;;;;;21.49;68.86;97228.83;588239;241;66799;-67
2022/10/25 03:18:38;;;;;;;;;;;;;;;21.47;68.87;97219.47;588258;241;66703;-67
2022/10/25 03:21:06;;;;;;;;;;;;;;;21.47;68.80;97228.32;588228;241;62773;-67
2022/10/25 03:23:34;;;;;;;;;;;;;;;21.47;67.79;97224.82;588228;241;66803;-67
2022/10/25 03:26:01;;;;;;;;;;;;;;;21.45;67.89;97227.78;588282;241;66399;-67
2022/10/25 03:28:30;;;;;;;;;;;;;;;21.46;68.35;97220.55;588230;241;65123;-68
2022/10/25 03:30:59;;;;;;;;;;;;;;;21.46;68.42;97221.35;588221;241;66966;-67
2022/10/25 03:33:26;;;;;;;;;;;;;;;21.45;68.96;97214.41;588207;241;65090;-67
2022/10/25 03:35:54;;;;;;;;;;;;;;;21.46;68.97;97215.20;588232;241;65222;-68
2022/10/25 03:38:22;;;;;;;;;;;;;;;21.45;68.49;97211.73;588293;241;66800;-67
2022/10/25 03:40:49;;;;;;;;;;;;;;;21.46;68.39;97209.86;588211;241;66711;-67
2022/10/25 03:43:17;;;;;;;;;;;;;;;21.44;69.11;97207.47;588250;241;64973;-67
2022/10/25 03:45:45;;;;;;;;;;;;;;;21.44;69.11;97204.80;588243;241;66775;-67
2022/10/25 03:48:12;;;;;;;;;;;;;;;21.44;68.62;97207.47;588236;241;66744;-67
2022/10/25 03:50:40;;;;;;;;;;;;;;;21.45;68.97;97208.27;588308;241;62754;-67
2022/10/25 03:53:07;;;;;;;;;;;;;;;21.44;68.86;97198.63;588201;241;66837;-67
2022/10/25 03:55:35;;;;;;;;;;;;;;;21.44;69.01;97211.99;588209;241;66751;-67
2022/10/25 03:58:03;;;;;;;;;;;;;;;21.44;69.19;97214.66;588224;241;65159;-68
2022/10/25 04:00:30;;;;;;;;;;;;;;;21.44;68.66;97211.99;588207;241;67406;-68
2022/10/25 04:02:59;;;;;;;;;;;;;;;21.43;68.87;97211.20;586019;242;64366;-68
2022/10/25 04:05:26;;;;;;;;;;;;;;;21.43;69.08;97213.88;585970;242;65097;-68
2022/10/25 04:07:54;;;;;;;;;;;;;;;21.42;68.17;97206.94;585937;242;66945;-68
2022/10/25 04:10:21;;;;;;;;;;;;;;;21.43;68.62;97203.17;585990;242;66722;-68
2022/10/25 04:12:51;;;;;;;;;;;;;;;21.42;68.67;97204.26;585992;242;64991;-68
2022/10/25 04:15:18;;;;;;;;;;;;;;;21.42;68.12;97198.91;586020;242;66797;-70
2022/10/25 04:17:48;;;;;;;;;;;;;;;21.42;68.42;97190.89;586023;242;66823;-67
2022/10/25 04:20:16;;;;;;;;;;;;;;;21.42;68.73;97198.91;585889;242;65753;-67
2022/10/25 04:22:43;;;;;;;;;;;;;;;21.43;69.04;97203.17;585962;242;66775;-68
2022/10/25 04:25:11;;;;;;;;;;;;;;;21.41;68.45;97191.94;586004;242;67774;-68
2022/10/25 04:27:38;;;;;;;;;;;;;;;21.42;67.71;97198.91;586057;242;65162;-68
2022/10/25 04:30:06;;;;;;;;;;;;;;;21.42;68.41;97198.91;586031;242;66938;-68
2022/10/25 04:32:33;;;;;;;;;;;;;;;21.43;67.09;97203.17;586014;242;66833;-68
2022/10/25 04:35:01;;;;;;;;;;;;;;;21.43;66.28;97200.50;585981;242;64974;-67
2022/10/25 04:37:28;;;;;;;;;;;;;;;21.44;65.22;97199.45;586000;242;66811;-67
2022/10/25 04:39:56;;;;;;;;;;;;;;;21.45;64.10;97203.72;586063;242;66437;-69
2022/10/25 04:42:23;;;;;;;;;;;;;;;21.47;66.55;97206.11;586014;242;64917;-69
2022/10/25 04:44:51;;;;;;;;;;;;;;;21.46;65.14;97202.63;585999;242;67020;-69
2022/10/25 04:47:18;;;;;;;;;;;;;;;21.47;66.88;97206.11;585971;242;66917;-69
2022/10/25 04:49:46;;;;;;;;;;;;;;;21.47;67.25;97209.61;586015;242;65077;-69
2022/10/25 04:52:13;;;;;;;;;;;;;;;21.48;67.56;97210.40;585998;242;66557;-69
2022/10/25 04:54:41;;;;;;;;;;;;;;;21.46;66.54;97207.19;586064;242;66592;-69
2022/10/25 04:57:08;;;;;;;;;;;;;;;21.47;68.02;97214.95;586004;242;64933;-69
2022/10/25 04:59:36;;;;;;;;;;;;;;;21.48;67.84;97208.52;586007;242;67658;-70
2022/10/25 05:02:04;;;;;;;;;;;;;;;21.48;67.71;97219.22;587398;241;66351;-69
2022/10/25 05:04:32;;;;;;;;;;;;;;;21.49;66.27;97214.66;588317;241;65172;-69
2022/10/25 05:06:59;;;;;;;;;;;;;;;21.49;66.70;97218.14;588316;241;66389;-70
2022/10/25 05:09:27;;;;;;;;;;;;;;;21.49;67.56;97215.47;588291;241;66425;-69
2022/10/25 05:11:54;;;;;;;;;;;;;;;21.51;67.10;97217.88;588248;241;62615;-69
2022/10/25 05:14:22;;;;;;;;;;;;;;;21.51;66.48;97212.53;588264;241;64512;-69
2022/10/25 05:16:49;;;;;;;;;;;;;;;21.51;65.56;97220.55;588275;241;64451;-69
2022/10/25 05:19:17;;;;;;;;;;;;;;;21.53;64.87;97231.00;588333;241;62925;-69
2022/10/25 05:21:44;;;;;;;;;;;;;;;21.54;66.37;97227.23;588244;241;64145;-69
2022/10/25 05:24:12;;;;;;;;;;;;;;;21.55;65.21;97224.28;588291;241;66356;-69
2022/10/25 05:26:39;;;;;;;;;;;;;;;21.55;64.92;97229.63;588238;241;65157;-69
2022/10/25 05:29:07;;;;;;;;;;;;;;;21.58;66.13;97228.29;588214;241;66704;-68
2022/10/25 05:31:35;;;;;;;;;;;;;;;21.59;68.28;97232.59;588285;241;66672;-69
2022/10/25 05:34:02;;;;;;;;;;;;;;;21.59;65.90;97227.23;588167;241;62873;-69
2022/10/25 05:36:32;;;;;;;;;;;;;;;21.61;67.16;97222.43;588230;241;66811;-69
2022/10/25 05:38:59;;;;;;;;;;;;;;;21.62;65.69;97229.37;588245;241;64405;-69
2022/10/25 05:41:27;;;;;;;;;;;;;;;21.64;64.11;97233.38;588218;241;66917;-69
2022/10/25 05:43:55;;;;;;;;;;;;;;;21.66;64.01;97241.94;588233;241;67040;-69
2022/10/25 05:46:23;;;;;;;;;;;;;;;21.69;62.30;97235.25;588304;241;66790;-68
2022/10/25 05:48:52;;;;;;;;;;;;;;;21.71;62.72;97238.44;588144;241;65230;-67
2022/10/25 05:51:30;;;;;;;;;;;;;;;21.73;62.41;97238.98;587615;241;64741;-68
2022/10/25 05:53:55;;;;;;;;;;;;;;;21.75;64.24;97244.87;587518;241;66526;-68
2022/10/25 05:56:24;;;;;;;;;;;;;;;21.78;62.62;97246.20;581172;244;66217;-69
2022/10/25 05:58:52;;;;;;;;;;;;;;;21.78;61.88;97247.00;581119;244;67718;-68
2022/10/25 06:01:20;;;;;;;;;;;;;;;21.82;62.32;97253.40;581914;243;64935;-67
2022/10/25 06:03:49;;;;;;;;;;;;;;;21.84;62.23;97247.79;583626;243;66099;-68
2022/10/25 06:06:16;;;;;;;;;;;;;;;21.86;61.50;97249.13;583511;243;64496;-68
2022/10/25 06:08:44;;;;;;;;;;;;;;;21.88;61.24;97246.98;583601;243;66933;-67
2022/10/25 06:11:14;;;;;;;;;;;;;;;21.90;62.15;97258.20;583693;240;65238;-66
2022/10/25 06:13:41;;;;;;;;;;;;;;;21.93;63.51;97252.33;583649;240;64589;-67
2022/10/25 06:16:10;;;;;;;;;;;;;;;21.94;60.26;97248.58;583655;243;65039;-67
2022/10/25 06:18:38;;;;;;;;;;;;;;;21.98;60.05;97253.38;583608;243;63040;-67
2022/10/25 06:21:07;;;;;;;;;;;;;;;22.00;60.34;97240.53;583579;243;67864;-67
2022/10/25 06:23:37;;;;;;;;;;;;;;;22.04;59.81;97253.08;583653;243;64837;-68
2022/10/25 06:26:06;;;;;;;;;;;;;;;22.07;59.58;97252.56;583655;243;64990;-67
2022/10/25 06:28:34;;;;;;;;;;;;;;;22.09;59.72;97252.28;583664;243;67521;-68
2022/10/25 06:31:04;;;;;;;;;;;;;;;22.13;59.39;97250.67;583613;243;66937;-67
2022/10/25 06:33:31;;;;;;;;;;;;;;;22.14;59.44;97252.27;583572;243;65131;-69
2022/10/25 06:36:00;;;;;;;;;;;;;;;22.19;59.25;97256.84;583653;243;67109;-71
2022/10/25 06:38:28;;;;;;;;;;;;;;;22.22;59.13;97253.62;583678;243;65009;-75
2022/10/25 06:40:58;;;;;;;;;;;;;;;22.24;59.08;97254.95;583581;243;46562;-68
2022/10/25 06:43:26;;;;;;;;;;;;;;;22.28;59.17;97255.20;583583;243;64905;-69
2022/10/25 06:45:54;;;;;;;;;;;;;;;22.29;59.92;97254.11;583656;243;64935;-68
2022/10/25 06:48:21;;;;;;;;;;;;;;;22.32;61.79;97264.30;583549;243;62833;-68
2022/10/25 06:50:50;;;;;;;;;;;;;;;22.33;60.93;97261.33;583566;243;67423;-68
2022/10/25 06:53:18;;;;;;;;;;;;;;;22.37;61.13;97262.41;583208;243;66955;-69
2022/10/25 06:55:48;;;;;;;;;;;;;;;22.41;61.04;97259.97;583501;243;64997;-71
2022/10/25 06:58:14;;;;;;;;;;;;;;;22.43;60.35;97259.70;583636;243;67225;-68
2022/10/25 07:00:42;;;;;;;;;;;;;;;22.45;60.70;97263.69;583362;243;66874;-69
2022/10/25 07:03:09;;;;;;;;;;;;;;;22.49;62.29;97263.96;580569;244;63032;-68
2022/10/25 07:05:37;;;;;;;;;;;;;;;22.52;62.39;97263.41;580665;244;67099;-68
2022/10/25 07:08:05;;;;;;;;;;;;;;;22.53;60.24;97263.12;580610;244;66635;-68
2022/10/25 07:10:32;;;;;;;;;;;;;;;22.57;61.55;97260.71;580614;244;65120;-68
2022/10/25 07:12:59;;;;;;;;;;;;;;;22.61;62.26;97256.39;580574;244;67183;-67
2022/10/25 07:15:27;;;;;;;;;;;;;;;22.63;61.86;97262.28;580502;244;67244;-68
2022/10/25 07:17:54;;;;;;;;;;;;;;;22.66;62.20;97259.05;580657;244;64964;-69
2022/10/25 07:20:22;;;;;;;;;;;;;;;22.68;62.26;97262.26;580623;244;67173;-68
2022/10/25 07:22:49;;;;;;;;;;;;;;;22.71;62.78;97264.38;580516;244;66972;-66
2022/10/25 07:25:17;;;;;;;;;;;;;;;22.74;63.14;97261.15;580616;244;64933;-69
2022/10/25 07:27:44;;;;;;;;;;;;;;;22.76;62.53;97263.56;580559;244;65965;-67
2022/10/25 07:30:12;;;;;;;;;;;;;;;22.76;60.30;97263.56;580601;244;64660;-66
2022/10/25 07:32:39;;;;;;;;;;;;;;;22.77;62.03;97249.87;580609;244;64928;-67
2022/10/25 07:35:07;;;;;;;;;;;;;;;22.79;60.75;97249.61;580567;244;66814;-66
2022/10/25 07:37:35;;;;;;;;;;;;;;;22.82;61.62;97246.38;580362;241;66906;-66
2022/10/25 07:40:02;;;;;;;;;;;;;;;22.83;62.41;97259.52;580525;242;64972;-67
2022/10/25 07:42:30;;;;;;;;;;;;;;;22.84;62.02;97241.55;580623;244;67618;-68
2022/10/25 07:44:58;;;;;;;;;;;;;;;22.85;62.48;97239.66;580570;244;64657;-68
2022/10/25 07:47:26;;;;;;;;;;;;;;;22.87;61.84;97240.20;580624;244;64837;-68
2022/10/25 07:49:56;;;;;;;;;;;;;;;22.88;60.31;97239.11;580589;244;65048;-68
2022/10/25 07:52:22;;;;;;;;;;;;;;;22.89;62.23;97235.34;580529;244;65006;-67
2022/10/25 07:54:50;;;;;;;;;;;;;;;22.90;61.33;97232.39;580562;244;64900;-68
2022/10/25 07:57:17;;;;;;;;;;;;;;;22.92;61.99;97235.60;580650;244;64887;-69
2022/10/25 07:59:45;;;;;;;;;;;;;;;22.94;61.61;97227.27;580537;244;64823;-67
2022/10/25 08:02:12;;;;;;;;;;;;;;;22.95;61.05;97231.57;580576;244;62848;-68
2022/10/25 08:04:40;;;;;;;;;;;;;;;22.96;61.75;97227.83;580601;244;67343;-69
2022/10/25 08:07:07;;;;;;;;;;;;;;;22.96;61.27;97217.91;580527;244;67193;-68
2022/10/25 08:09:35;;;;;;;;;;;;;;;22.97;61.11;97219.52;580539;242;63000;-69
2022/10/25 08:12:02;;;;;;;;;;;;;;;22.99;61.81;97211.19;578991;245;67181;-70
2022/10/25 08:14:30;;;;;;;;;;;;;;;23.00;60.51;97213.60;578930;245;67138;-72
2022/10/25 08:16:57;;;;;;;;;;;;;;;23.02;61.61;97213.30;578844;242;65151;-69
2022/10/25 08:19:25;;;;;;;;;;;;;;;23.02;60.70;97213.30;578926;245;67101;-71
2022/10/25 08:21:52;;;;;;;;;;;;;;;23.03;60.16;97210.36;578996;245;66657;-71
2022/10/25 08:24:20;;;;;;;;;;;;;;;23.03;60.23;97210.36;578983;245;64832;-71
2022/10/25 08:26:47;;;;;;;;;;;;;;;23.04;61.73;97201.23;578920;245;64988;-72
2022/10/25 08:29:15;;;;;;;;;;;;;;;23.05;61.44;97204.70;578886;245;64267;-71
2022/10/25 08:31:42;;;;;;;;;;;;;;;23.06;60.63;97200.17;578961;245;62775;-72
2022/10/25 08:34:10;;;;;;;;;;;;;;;23.07;61.55;97194.52;578997;245;64897;-75
2022/10/25 08:36:37;;;;;;;;;;;;;;;23.08;61.06;97196.13;578953;245;67292;-73
2022/10/25 08:39:05;;;;;;;;;;;;;;;23.09;60.51;97194.24;578927;245;65167;-72
2022/10/25 08:41:43;;;;;;;;;;;;;;;23.10;62.03;97201.19;578931;245;68157;-72
2022/10/25 08:44:12;;;;;;;;;;;;;;;23.11;61.86;97192.06;578907;245;66939;-72
2022/10/25 08:46:58;;;;;;;;;;;;;;;23.11;62.30;97194.74;578594;245;65147;-72
2022/10/25 08:49:39;;;;;;;;;;;;;;;23.10;61.73;97190.47;578857;245;67800;-72
2022/10/25 08:52:08;;;;;;;;;;;;;;;23.11;61.72;97184.02;578999;245;67817;-71
2022/10/25 08:54:37;;;;;;;;;;;;;;;23.11;61.53;97184.02;578529;245;65064;-71
2022/10/25 08:57:22;;;;;;;;;;;;;;;23.10;61.87;97177.86;578895;245;67255;-72
2022/10/25 08:59:51;;;;;;;;;;;;;;;23.11;61.43;97182.16;578950;245;67083;-70
2022/10/25 09:02:21;;;;;;;;;;;;;;;23.11;61.09;97176.80;582419;243;65001;-71
2022/10/25 09:04:48;;;;;;;;;;;;;;;23.12;61.68;97174.91;583500;243;67129;-69
2022/10/25 09:07:32;;;;;;;;;;;;;;;23.13;61.27;97166.58;583766;243;64776;-71
2022/10/25 09:10:10;;;;;;;;;;;;;;;23.13;61.26;97171.14;583461;243;62684;-70
2022/10/25 09:12:40;;;;;;;;;;;;;;;23.13;61.86;97163.89;583641;243;66894;-73
2022/10/25 09:15:15;;;;;;;;;;;;;;;23.12;62.29;97162.30;582670;243;66814;-70
2022/10/25 09:17:50;;;;;;;;;;;;;;;23.13;62.23;97168.46;583721;243;64981;-73
2022/10/25 09:20:28;;;;;;;;;;;;;;;23.12;61.58;97164.98;583748;243;64525;-73
2022/10/25 09:23:14;;;;;;;;;;;;;;;23.12;61.52;97175.70;583685;243;64400;-73
2022/10/25 09:25:46;;;;;;;;;;;;;;;23.12;61.12;97178.39;583818;243;63083;-71
2022/10/25 09:28:15;;;;;;;;;;;;;;;23.12;60.70;97177.59;583786;243;66836;-71
2022/10/25 09:30:44;;;;;;;;;;;;;;;23.11;62.44;97179.48;583548;243;66730;-71
2022/10/25 09:33:13;;;;;;;;;;;;;;;23.11;60.84;97182.16;583687;243;65078;-71
2022/10/25 09:35:42;;;;;;;;;;;;;;;23.10;60.64;97180.55;583723;243;65450;-65
2022/10/25 09:38:17;;;;;;;;;;;;;;;23.09;60.57;97192.36;583736;243;64694;-67
2022/10/25 09:40:49;;;;;;;;;;;;;;;23.10;60.11;97185.11;583746;243;62878;-67
2022/10/25 09:43:18;;;;;;;;;;;;;;;23.10;60.47;97185.91;583682;243;66887;-67
2022/10/25 09:46:03;;;;;;;;;;;;;;;23.09;60.54;97178.95;583636;243;65198;-68
2022/10/25 09:48:32;;;;;;;;;;;;;;;23.10;60.30;97183.22;583761;243;62802;-68
2022/10/25 09:51:02;;;;;;;;;;;;;;;23.09;59.63;97176.27;583454;243;66842;-67
2022/10/25 09:53:30;;;;;;;;;;;;;;;23.09;59.98;97175.48;583272;243;64764;-69
2022/10/25 09:55:58;;;;;;;;;;;;;;;23.08;60.07;97172.00;583814;243;64994;-68
2022/10/25 09:58:29;;;;;;;;;;;;;;;23.10;57.68;97171.70;583762;243;67220;-66
2022/10/25 10:00:58;;;;;;;;;;;;;;;23.15;58.57;97175.14;583414;243;66877;-66
2022/10/25 10:03:30;;;;;;;;;;;;;;;23.14;58.72;97170.88;583779;243;64931;-65
2022/10/25 10:05:59;;;;;;;;;;;;;;;23.14;59.44;97176.23;583747;243;64661;-67
2022/10/25 10:08:27;;;;;;;;;;;;;;;23.13;59.00;97182.66;583725;243;64751;-68
2022/10/25 10:10:55;;;;;;;;;;;;;;;23.12;60.11;97178.39;583651;243;62817;-67
2022/10/25 10:13:29;;;;;;;;;;;;;;;23.12;60.01;97178.39;583747;243;65334;-69
2022/10/25 10:15:59;;;;;;;;;;;;;;;23.12;60.83;97185.64;583605;243;64851;-74
2022/10/25 10:18:31;;;;;;;;;;;;;;;23.11;59.71;97184.84;583474;243;65049;-71
2022/10/25 10:21:09;;;;;;;;;;;;;;;23.11;60.12;97179.48;583542;243;67392;-75
2022/10/25 10:23:38;;;;;;;;;;;;;;;23.10;60.54;97177.86;583578;243;67018;-72
2022/10/25 10:26:08;;;;;;;;;;;;;;;23.11;60.92;97174.12;583056;243;64989;-72
2022/10/25 10:28:36;;;;;;;;;;;;;;;23.11;61.38;97178.66;583015;243;67049;-72
2022/10/25 10:31:07;;;;;;;;;;;;;;;23.10;61.56;97172.50;583003;243;66913;-71
2022/10/25 10:33:34;;;;;;;;;;;;;;;23.09;60.86;97165.55;583654;243;63766;-73
2022/10/25 10:36:22;;;;;;;;;;;;;;;23.10;60.27;97160.98;583676;243;65826;-71
2022/10/25 10:38:49;;;;;;;;;;;;;;;23.11;61.07;97158.03;583738;243;66902;-69
2022/10/25 10:41:22;;;;;;;;;;;;;;;23.10;59.51;97164.46;583742;243;62682;-71
2022/10/25 10:43:51;;;;;;;;;;;;;;;23.10;61.36;97156.42;583686;243;70099;-72
2022/10/25 10:46:20;;;;;;;;;;;;;;;23.10;59.87;97167.14;583763;243;66900;-70
2022/10/25 10:48:49;;;;;;;;;;;;;;;23.10;61.25;97163.66;583752;243;64987;-68
2022/10/25 10:51:17;;;;;;;;;;;;;;;23.11;61.16;97162.58;583510;243;64874;-73
2022/10/25 10:53:45;;;;;;;;;;;;;;;23.10;59.61;97160.98;583795;243;64679;-71
2022/10/25 10:56:14;;;;;;;;;;;;;;;23.09;59.94;97160.19;583644;243;62706;-71
2022/10/25 10:58:43;;;;;;;;;;;;;;;23.09;59.36;97165.55;583572;243;64900;-71
2022/10/25 11:01:15;;;;;;;;;;;;;;;23.10;59.69;97156.42;583522;243;65187;-71
2022/10/25 11:03:44;;;;;;;;;;;;;;;23.11;59.50;97157.21;583693;243;64942;-72
2022/10/25 11:06:19;;;;;;;;;;;;;;;23.09;59.94;97160.19;583767;243;64613;-72
2022/10/25 11:08:47;;;;;;;;;;;;;;;23.12;59.28;97161.52;583592;243;65941;-72
2022/10/25 11:11:21;;;;;;;;;;;;;;;23.09;58.88;97154.03;583689;243;66263;-72
2022/10/25 11:13:50;;;;;;;;;;;;;;;23.10;59.16;97159.09;583727;243;67039;-71
2022/10/25 11:16:19;;;;;;;;;;;;;;;23.10;59.70;97152.94;583809;243;64664;-73
2022/10/25 11:18:51;;;;;;;;;;;;;;;23.10;61.23;97163.66;583212;243;62609;-72
2022/10/25 11:21:20;;;;;;;;;;;;;;;23.10;59.96;97160.98;583538;243;65616;-72
2022/10/25 11:23:51;;;;;;;;;;;;;;;23.09;59.33;97159.39;583657;243;66931;-72
2022/10/25 11:26:20;;;;;;;;;;;;;;;23.09;59.31;97162.88;583682;243;64936;-72
2022/10/25 11:28:49;;;;;;;;;;;;;;;23.09;60.10;97160.19;583512;243;67526;-71
2022/10/25 11:31:18;;;;;;;;;;;;;;;23.10;59.44;97155.63;583599;243;64732;-71
2022/10/25 11:34:04;;;;;;;;;;;;;;;23.10;59.54;97160.98;583693;243;65143;-71
2022/10/25 11:36:49;;;;;;;;;;;;;;;23.09;59.99;97154.03;583771;243;67474;-71
2022/10/25 11:39:23;;;;;;;;;;;;;;;23.09;60.52;97151.35;583710;243;65799;-71
2022/10/25 11:41:52;;;;;;;;;;;;;;;23.09;59.82;97149.47;583549;243;62875;-71
2022/10/25 11:44:40;;;;;;;;;;;;;;;23.08;59.44;97142.52;583730;243;43710;-71
2022/10/25 11:47:11;;;;;;;;;;;;;;;23.09;60.03;97149.47;583677;243;47754;-72
2022/10/25 11:49:47;;;;;;;;;;;;;;;23.08;59.92;97137.16;583475;243;65354;-72
2022/10/25 11:52:21;;;;;;;;;;;;;;;23.08;59.80;97134.48;583223;243;45075;-72
2022/10/25 11:55:09;;;;;;;;;;;;;;;23.09;60.28;97128.02;583625;243;47360;-70
2022/10/25 11:57:39;;;;;;;;;;;;;;;23.09;60.51;97125.34;583686;243;65219;-70
2022/10/25 12:00:20;;;;;;;;;;;;;;;23.10;60.87;97124.25;583093;243;48255;-69
2022/10/25 12:02:52;;;;;;;;;;;;;;;23.10;60.95;97121.56;583672;243;66961;-72
2022/10/25 12:05:27;;;;;;;;;;;;;;;23.09;59.79;97113.83;583485;243;47447;-71
2022/10/25 12:07:59;;;;;;;;;;;;;;;23.09;60.35;97124.55;582912;243;65301;-71
2022/10/25 12:10:32;;;;;;;;;;;;;;;23.08;59.71;97110.35;583775;243;67624;-69
2022/10/25 12:13:04;;;;;;;;;;;;;;;23.08;59.94;97107.67;583709;243;64934;-70
2022/10/25 12:15:36;;;;;;;;;;;;;;;23.09;59.45;97111.94;582849;243;65060;-71
2022/10/25 12:18:05;;;;;;;;;;;;;;;23.10;60.44;97102.01;583735;243;67328;-70
2022/10/25 12:20:33;;;;;;;;;;;;;;;23.08;59.81;97099.63;583761;243;62859;-70
2022/10/25 12:23:02;;;;;;;;;;;;;;;23.08;61.28;97099.63;583575;243;67061;-70
2022/10/25 12:25:41;;;;;;;;;;;;;;;23.07;60.40;97100.69;583744;243;67061;-70
2022/10/25 12:28:26;;;;;;;;;;;;;;;23.06;59.56;97096.42;574850;246;62925;-71
2022/10/25 12:30:55;;;;;;;;;;;;;;;23.08;61.54;97098.80;577037;246;67045;-67
2022/10/25 12:33:42;;;;;;;;;;;;;;;23.04;62.18;97096.69;577018;246;66656;-72
2022/10/25 12:36:11;;;;;;;;;;;;;;;23.03;60.39;97105.83;577026;246;62846;-74
2022/10/25 12:38:40;;;;;;;;;;;;;;;23.01;61.65;97104.50;576997;246;66919;-72
2022/10/25 12:41:21;;;;;;;;;;;;;;;23.00;61.53;97109.08;577103;246;64916;-71
2022/10/25 12:44:07;;;;;;;;;;;;;;;22.98;60.32;97105.87;577018;246;65212;-71
2022/10/25 12:46:39;;;;;;;;;;;;;;;22.98;61.52;97110.44;577072;246;65118;-71
2022/10/25 12:49:08;;;;;;;;;;;;;;;22.98;62.18;97115.80;576975;246;64797;-71
2022/10/25 12:51:53;;;;;;;;;;;;;;;22.97;60.27;97111.50;573110;246;65305;-71
2022/10/25 12:54:22;;;;;;;;;;;;;;;22.96;60.75;97112.59;577117;246;64860;-70
2022/10/25 12:56:51;;;;;;;;;;;;;;;22.96;60.84;97115.27;577080;246;64890;-72
2022/10/25 12:59:20;;;;;;;;;;;;;;;22.96;60.82;97115.27;576893;246;62713;-71
2022/10/25 13:01:49;;;;;;;;;;;;;;;22.96;60.04;97109.91;575592;246;64830;-72